createdAt,value
2022-11-12T00:01:44.097Z,10.80
2022-11-12T00:04:37.431Z,10.40
2022-11-12T00:07:30.786Z,11.00
2022-11-12T00:10:24.023Z,10.77
2022-11-12T00:13:17.438Z,10.37
2022-11-12T00:16:10.605Z,10.80
2022-11-12T00:19:04.027Z,10.67
2022-11-12T00:21:57.450Z,11.90
2022-11-12T00:24:51.089Z,11.47
2022-11-12T00:27:44.776Z,10.77
2022-11-12T00:30:40.802Z,11.63
2022-11-12T00:33:34.263Z,9.57
2022-11-12T00:36:27.787Z,11.00
2022-11-12T00:39:21.262Z,11.63
2022-11-12T00:42:14.948Z,11.17
2022-11-12T00:45:09.728Z,10.30
2022-11-12T00:48:03.055Z,10.73
2022-11-12T00:51:02.493Z,12.20
2022-11-12T00:53:56.308Z,11.40
2022-11-12T00:56:50.026Z,10.80
2022-11-12T00:59:43.247Z,11.73
2022-11-12T01:02:42.308Z,11.20
2022-11-12T01:05:37.713Z,11.37
2022-11-12T01:08:31.273Z,11.87
2022-11-12T01:11:28.861Z,11.23
2022-11-12T01:14:22.142Z,12.50
2022-11-12T01:17:15.684Z,10.93
2022-11-12T01:20:09.406Z,12.07
2022-11-12T01:23:02.774Z,11.07
2022-11-12T01:25:56.290Z,10.87
2022-11-12T01:28:49.992Z,11.67
2022-11-12T01:31:43.562Z,11.90
2022-11-12T01:34:36.964Z,11.30
2022-11-12T01:37:30.332Z,10.90
2022-11-12T01:40:23.728Z,10.80
2022-11-12T01:43:17.408Z,9.90
2022-11-12T01:46:27.906Z,11.30
2022-11-12T01:49:40.892Z,10.87
2022-11-12T01:52:43.949Z,9.97
2022-11-12T01:55:38.181Z,11.80
2022-11-12T01:58:33.343Z,10.50
2022-11-12T02:01:26.862Z,9.30
2022-11-12T02:04:21.863Z,10.17
2022-11-12T02:07:16.485Z,11.03
2022-11-12T02:10:10.414Z,10.80
2022-11-12T02:13:22.342Z,10.10
2022-11-12T02:16:16.038Z,11.07
2022-11-12T02:19:16.016Z,12.43
2022-11-12T02:22:09.258Z,11.13
2022-11-12T02:25:02.795Z,11.10
2022-11-12T02:27:58.532Z,11.07
2022-11-12T02:30:52.312Z,10.70
2022-11-12T02:33:45.837Z,10.67
2022-11-12T02:36:39.564Z,9.30
2022-11-12T02:39:33.490Z,10.33
2022-11-12T02:42:27.157Z,9.50
2022-11-12T02:45:21.009Z,10.90
2022-11-12T02:48:19.022Z,9.87
2022-11-12T02:51:13.327Z,8.93
2022-11-12T02:54:06.657Z,9.80
2022-11-12T02:56:59.932Z,10.33
2022-11-12T02:59:53.423Z,9.77
2022-11-12T03:02:58.921Z,9.90
2022-11-12T03:06:01.133Z,9.00
2022-11-12T03:08:54.556Z,9.80
2022-11-12T03:11:48.315Z,9.30
2022-11-12T03:14:41.921Z,9.50
2022-11-12T03:17:35.552Z,8.83
2022-11-12T03:20:29.972Z,8.60
2022-11-12T03:23:23.595Z,9.20
2022-11-12T03:26:17.049Z,9.70
2022-11-12T03:29:10.246Z,9.63
2022-11-12T03:32:04.049Z,8.10
2022-11-12T03:34:57.394Z,8.30
2022-11-12T03:37:51.111Z,8.37
2022-11-12T03:40:44.417Z,8.23
2022-11-12T03:43:37.948Z,8.63
2022-11-12T03:46:31.642Z,8.17
2022-11-12T03:49:25.002Z,7.97
2022-11-12T03:52:18.492Z,8.33
2022-11-12T03:55:13.631Z,7.50
2022-11-12T03:58:07.313Z,7.33
2022-11-12T04:01:01.964Z,7.27
2022-11-12T04:03:55.756Z,7.43
2022-11-12T04:07:07.666Z,6.60
2022-11-12T04:10:01.202Z,6.93
2022-11-12T04:13:13.847Z,7.33
2022-11-12T04:16:33.417Z,7.17
2022-11-12T04:19:45.527Z,8.03
2022-11-12T04:22:39.179Z,7.40
2022-11-12T04:25:51.016Z,7.40
2022-11-12T04:29:04.759Z,7.10
2022-11-12T04:31:58.162Z,6.40
2022-11-12T04:34:52.843Z,6.73
2022-11-12T04:37:46.482Z,7.60
2022-11-12T04:40:58.527Z,6.07
2022-11-12T04:44:10.400Z,6.90
2022-11-12T04:47:04.031Z,6.70
2022-11-12T04:49:58.331Z,7.40
2022-11-12T04:52:51.904Z,6.90
2022-11-12T04:55:45.496Z,6.57
2022-11-12T04:58:39.021Z,7.50
2022-11-12T05:01:32.522Z,5.37
2022-11-12T05:04:28.746Z,6.40
2022-11-12T05:07:22.196Z,7.17
2022-11-12T05:10:16.398Z,6.80
2022-11-12T05:13:09.613Z,6.87
2022-11-12T05:16:03.412Z,6.10
2022-11-12T05:18:56.663Z,5.53
2022-11-12T05:22:05.194Z,5.30
2022-11-12T05:24:58.549Z,6.40
2022-11-12T05:27:52.235Z,7.10
2022-11-12T05:30:48.318Z,6.00
2022-11-12T05:33:41.610Z,7.17
2022-11-12T05:36:35.274Z,6.83
2022-11-12T05:39:29.000Z,6.20
2022-11-12T05:42:22.560Z,5.97
2022-11-12T05:45:15.797Z,6.20
2022-11-12T05:48:09.343Z,6.37
2022-11-12T05:51:18.270Z,6.10
2022-11-12T05:54:12.687Z,5.83
2022-11-12T05:57:06.164Z,6.17
2022-11-12T05:59:59.839Z,6.03
2022-11-12T06:02:58.585Z,6.50
2022-11-12T06:05:52.734Z,6.07
2022-11-12T06:08:45.974Z,5.90
2022-11-12T06:11:39.777Z,6.50
2022-11-12T06:14:33.232Z,6.30
2022-11-12T06:17:26.549Z,6.37
2022-11-12T06:20:22.138Z,6.00
2022-11-12T06:23:15.743Z,6.73
2022-11-12T06:26:09.224Z,6.73
2022-11-12T06:29:02.787Z,7.40
2022-11-12T06:31:56.279Z,6.90
2022-11-12T06:34:50.724Z,7.10
2022-11-12T06:37:47.623Z,6.50
2022-11-12T06:40:41.808Z,6.60
2022-11-12T06:43:36.082Z,6.33
2022-11-12T06:46:29.634Z,7.33
2022-11-12T06:49:23.228Z,6.50
2022-11-12T06:52:17.454Z,7.47
2022-11-12T06:55:10.858Z,7.47
2022-11-12T06:58:04.439Z,7.50
2022-11-12T07:00:58.139Z,7.00
2022-11-12T07:03:53.961Z,6.93
2022-11-12T07:06:47.248Z,6.60
2022-11-12T07:09:40.540Z,7.03
2022-11-12T07:12:34.031Z,7.10
2022-11-12T07:15:27.588Z,6.13
2022-11-12T07:18:21.071Z,7.23
2022-11-12T07:21:20.879Z,7.70
2022-11-12T07:24:14.126Z,7.33
2022-11-12T07:27:07.704Z,8.13
2022-11-12T07:30:01.344Z,7.77
2022-11-12T07:32:58.121Z,7.27
2022-11-12T07:36:02.648Z,7.00
2022-11-12T07:38:56.830Z,6.80
2022-11-12T07:41:51.536Z,7.00
2022-11-12T07:44:44.972Z,7.13
2022-11-12T07:47:38.562Z,6.60
2022-11-12T07:50:32.111Z,6.23
2022-11-12T07:53:25.965Z,7.97
2022-11-12T07:56:22.177Z,6.60
2022-11-12T07:59:15.526Z,6.40
2022-11-12T08:02:09.823Z,6.20
2022-11-12T08:05:03.022Z,7.30
2022-11-12T08:07:57.189Z,8.23
2022-11-12T08:10:57.743Z,7.10
2022-11-12T08:13:51.945Z,7.53
2022-11-12T08:16:46.680Z,7.10
2022-11-12T08:19:39.934Z,7.17
2022-11-12T08:22:33.564Z,6.80
2022-11-12T08:25:27.206Z,6.03
2022-11-12T08:28:20.540Z,7.17
2022-11-12T08:31:17.895Z,7.10
2022-11-12T08:34:18.552Z,6.93
2022-11-12T08:37:15.141Z,7.67
2022-11-12T08:40:09.920Z,6.60
2022-11-12T08:43:06.838Z,6.80
2022-11-12T08:46:02.008Z,6.80
2022-11-12T08:48:55.902Z,6.53
2022-11-12T08:51:49.476Z,5.67
2022-11-12T08:54:43.341Z,7.00
2022-11-12T08:57:44.560Z,6.43
2022-11-12T09:00:43.555Z,6.13
2022-11-12T09:03:37.465Z,6.73
2022-11-12T09:06:31.227Z,7.03
2022-11-12T09:09:24.836Z,8.03
2022-11-12T09:12:19.884Z,7.53
2022-11-12T09:18:28.012Z,6.73
2022-11-12T09:21:24.792Z,7.20
2022-11-12T09:24:19.249Z,6.90
2022-11-12T09:27:13.777Z,6.70
2022-11-12T09:30:08.301Z,5.57
2022-11-12T09:33:01.842Z,6.20
2022-11-12T09:35:56.199Z,6.33
2022-11-12T09:38:49.525Z,6.00
2022-11-12T09:41:43.112Z,6.60
2022-11-12T09:44:40.622Z,6.43
2022-11-12T09:47:45.403Z,5.90
2022-11-12T09:50:58.179Z,6.40
2022-11-12T09:54:17.726Z,6.20
2022-11-12T09:57:14.628Z,6.60
2022-11-12T10:00:26.356Z,5.53
2022-11-12T10:03:55.698Z,6.87
2022-11-12T10:07:21.086Z,6.10
2022-11-12T10:10:34.364Z,6.37
2022-11-12T10:14:25.631Z,5.13
2022-11-12T10:17:46.327Z,4.37
2022-11-12T10:20:59.696Z,5.10
2022-11-12T10:23:53.907Z,4.97
2022-11-12T10:26:48.711Z,4.23
2022-11-12T10:30:01.910Z,5.20
2022-11-12T10:32:55.553Z,5.47
2022-11-12T10:35:49.339Z,5.53
2022-11-12T10:38:44.164Z,5.50
2022-11-12T10:41:37.444Z,5.93
2022-11-12T10:44:31.008Z,6.50
2022-11-12T10:47:38.845Z,6.80
2022-11-12T10:50:40.803Z,5.67
2022-11-12T10:53:39.722Z,5.70
2022-11-12T10:56:33.555Z,5.33
2022-11-12T10:59:26.845Z,5.27
2022-11-12T11:02:20.547Z,5.40
2022-11-12T11:05:29.323Z,5.90
2022-11-12T11:09:11.521Z,7.90
2022-11-12T11:12:31.111Z,7.13
2022-11-12T11:15:24.652Z,6.17
2022-11-12T11:18:18.133Z,6.07
2022-11-12T11:21:30.257Z,5.40
2022-11-12T11:24:56.484Z,5.73
2022-11-12T11:28:11.458Z,5.40
2022-11-12T11:31:21.513Z,6.53
2022-11-12T11:34:36.100Z,5.60
2022-11-12T11:37:32.857Z,6.03
2022-11-12T11:40:37.399Z,4.53
2022-11-12T11:43:47.246Z,7.93
2022-11-12T11:47:08.205Z,7.60
2022-11-12T11:50:20.488Z,6.93
2022-11-12T11:53:21.780Z,7.60
2022-11-12T11:56:26.458Z,8.30
2022-11-12T12:00:04.895Z,8.00
2022-11-12T12:03:17.713Z,4.53
2022-11-12T12:06:20.611Z,4.60
2022-11-12T12:09:33.309Z,5.77
2022-11-12T12:12:40.915Z,5.10
2022-11-12T12:16:26.798Z,6.20
2022-11-12T12:19:47.037Z,5.37
2022-11-12T12:22:59.386Z,5.20
2022-11-12T12:26:00.205Z,3.87
2022-11-12T12:29:04.198Z,4.07
2022-11-12T12:32:29.603Z,4.13
2022-11-12T12:35:38.691Z,4.00
2022-11-12T12:39:10.851Z,4.43
2022-11-12T12:42:22.812Z,4.00
2022-11-12T12:45:43.553Z,4.40
2022-11-12T12:48:44.463Z,4.60
2022-11-12T12:51:38.227Z,4.57
2022-11-12T12:54:34.917Z,4.80
2022-11-12T12:57:39.545Z,4.77
2022-11-12T13:00:39.877Z,4.23
2022-11-12T13:03:53.655Z,4.40
2022-11-12T13:06:46.994Z,4.20
2022-11-12T13:09:40.580Z,3.93
2022-11-12T13:13:18.211Z,3.80
2022-11-12T13:16:49.546Z,5.00
2022-11-12T13:19:57.790Z,4.17
2022-11-12T13:22:51.692Z,4.67
2022-11-12T13:25:45.310Z,4.30
2022-11-12T13:29:29.562Z,4.50
2022-11-12T13:32:32.506Z,4.50
2022-11-12T13:35:28.356Z,3.67
2022-11-12T13:38:21.898Z,4.10
2022-11-12T13:41:40.318Z,3.90
2022-11-12T13:44:37.579Z,3.90
2022-11-12T13:47:32.230Z,4.80
2022-11-12T13:50:26.276Z,4.27
2022-11-12T13:53:25.633Z,3.60
2022-11-12T13:56:39.465Z,5.53
2022-11-12T13:59:32.963Z,4.40
2022-11-12T14:02:27.360Z,4.87
2022-11-12T14:05:26.191Z,4.30
2022-11-12T14:08:39.338Z,4.10
2022-11-12T14:11:51.426Z,4.57
2022-11-12T14:15:15.469Z,3.90
2022-11-12T14:18:36.091Z,3.93
2022-11-12T14:21:29.970Z,3.87
2022-11-12T14:24:23.655Z,3.80
2022-11-12T14:27:37.634Z,4.40
2022-11-12T14:30:32.111Z,5.10
2022-11-12T14:33:28.621Z,4.37
2022-11-12T14:36:23.546Z,4.47
2022-11-12T14:39:17.331Z,4.40
2022-11-12T14:42:14.765Z,5.17
2022-11-12T14:45:17.135Z,5.60
2022-11-12T14:48:11.249Z,6.33
2022-11-12T14:51:10.115Z,6.27
2022-11-12T14:54:11.240Z,5.33
2022-11-12T14:57:05.296Z,5.70
2022-11-12T14:59:58.785Z,6.33
2022-11-12T15:02:59.315Z,6.23
2022-11-12T15:06:07.878Z,5.90
2022-11-12T15:09:01.408Z,5.60
2022-11-12T15:11:55.147Z,7.67
2022-11-12T15:14:48.705Z,8.03
2022-11-12T15:17:42.519Z,7.23
2022-11-12T15:20:35.867Z,8.97
2022-11-12T15:23:29.865Z,6.53
2022-11-12T15:26:34.305Z,7.60
2022-11-12T15:29:29.112Z,6.93
2022-11-12T15:32:22.894Z,7.00
2022-11-12T15:35:32.456Z,7.10
2022-11-12T15:38:31.648Z,8.10
2022-11-12T15:41:30.728Z,8.03
2022-11-12T15:44:25.008Z,8.23
2022-11-12T15:47:22.426Z,7.83
2022-11-12T15:50:19.473Z,7.63
2022-11-12T15:53:14.140Z,8.37
2022-11-12T15:56:17.947Z,8.30
2022-11-12T15:59:17.469Z,8.60
2022-11-12T16:02:15.055Z,9.80
2022-11-12T16:05:17.973Z,9.47
2022-11-12T16:08:12.281Z,9.53
2022-11-12T16:11:26.117Z,9.50
2022-11-12T16:14:24.638Z,9.77
2022-11-12T16:17:18.644Z,11.23
2022-11-12T16:20:15.816Z,10.93
2022-11-12T16:23:09.648Z,10.83
2022-11-12T16:26:07.910Z,11.23
2022-11-12T16:29:01.284Z,13.43
2022-11-12T16:31:54.500Z,14.30
2022-11-12T16:34:48.097Z,13.30
2022-11-12T16:37:43.724Z,14.37
2022-11-12T16:40:38.389Z,14.47
2022-11-12T16:43:31.670Z,13.60
2022-11-12T16:46:30.583Z,13.13
2022-11-12T16:49:24.837Z,12.80
2022-11-12T16:52:18.960Z,12.33
2022-11-12T16:55:12.729Z,12.57
2022-11-12T16:58:06.408Z,12.90
2022-11-12T17:01:00.101Z,11.37
2022-11-12T17:03:55.685Z,12.33
2022-11-12T17:06:49.034Z,11.67
2022-11-12T17:09:42.915Z,11.43
2022-11-12T17:12:36.671Z,11.47
2022-11-12T17:15:30.344Z,12.20
2022-11-12T17:18:24.284Z,12.03
2022-11-12T17:21:19.307Z,13.40
2022-11-12T17:24:12.899Z,12.10
2022-11-12T17:27:06.032Z,11.90
2022-11-12T17:29:59.513Z,12.73
2022-11-12T17:32:53.081Z,12.77
2022-11-12T17:35:46.668Z,13.50
2022-11-12T17:38:41.263Z,12.50
2022-11-12T17:41:34.620Z,13.77
2022-11-12T17:44:28.170Z,15.50
2022-11-12T17:47:21.629Z,14.77
2022-11-12T17:50:15.468Z,12.30
2022-11-12T17:53:08.724Z,13.87
2022-11-12T17:56:02.903Z,14.57
2022-11-12T17:58:56.576Z,13.97
2022-11-12T18:01:50.672Z,13.87
2022-11-12T18:04:44.300Z,14.27
2022-11-12T18:07:37.913Z,15.70
2022-11-12T18:10:31.430Z,13.37
2022-11-12T18:13:26.732Z,15.60
2022-11-12T18:16:27.327Z,14.70
2022-11-12T18:19:21.167Z,13.70
2022-11-12T18:22:15.430Z,14.67
2022-11-12T18:25:09.328Z,14.33
2022-11-12T18:28:02.744Z,13.90
2022-11-12T18:31:05.069Z,13.23
2022-11-12T18:33:58.668Z,13.40
2022-11-12T18:36:52.123Z,14.13
2022-11-12T18:39:45.555Z,14.60
2022-11-12T18:42:39.106Z,14.47
2022-11-12T18:45:32.720Z,14.37
2022-11-12T18:48:28.736Z,14.10
2022-11-12T18:51:22.199Z,13.53
2022-11-12T18:54:16.181Z,13.53
2022-11-12T18:57:09.589Z,13.73
2022-11-12T19:00:03.995Z,15.20
2022-11-12T19:02:57.517Z,14.17
2022-11-12T19:05:59.291Z,12.87
2022-11-12T19:08:58.215Z,13.90
2022-11-12T19:11:51.781Z,13.80
2022-11-12T19:14:45.426Z,14.37
2022-11-12T19:17:38.793Z,14.30
2022-11-12T19:20:32.369Z,13.70
2022-11-12T19:23:27.726Z,15.30
2022-11-12T19:26:22.980Z,15.93
2022-11-12T19:29:17.285Z,16.47
2022-11-12T19:32:10.597Z,16.77
2022-11-12T19:35:04.658Z,17.33
2022-11-12T19:37:58.185Z,15.30
2022-11-12T19:40:51.757Z,16.97
2022-11-12T19:43:44.947Z,17.10
2022-11-12T19:46:38.057Z,17.67
2022-11-12T19:49:31.485Z,17.20
2022-11-12T19:52:26.116Z,15.90
2022-11-12T19:55:19.385Z,15.30
2022-11-12T19:58:12.980Z,15.20
2022-11-12T20:01:13.416Z,16.40
2022-11-12T20:04:07.006Z,14.03
2022-11-12T20:07:00.286Z,15.30
2022-11-12T20:09:59.558Z,16.50
2022-11-12T20:12:54.814Z,15.17
2022-11-12T20:15:48.201Z,15.03
2022-11-12T20:18:41.583Z,19.13
2022-11-12T20:21:34.823Z,18.00
2022-11-12T20:24:28.353Z,17.80
2022-11-12T20:27:22.101Z,17.17
2022-11-12T20:30:15.372Z,16.37
2022-11-12T20:33:08.986Z,15.70
2022-11-12T20:36:12.375Z,15.43
2022-11-12T20:39:06.117Z,15.50
2022-11-12T20:42:00.965Z,15.90
2022-11-12T20:44:54.315Z,16.47
2022-11-12T20:47:47.770Z,14.27
2022-11-12T20:50:56.310Z,15.20
2022-11-12T20:54:00.285Z,15.07
2022-11-12T20:56:55.977Z,14.83
2022-11-12T20:59:51.518Z,14.10
2022-11-12T21:02:45.072Z,14.33
2022-11-12T21:05:38.546Z,15.30
2022-11-12T21:08:33.560Z,15.00
2022-11-12T21:11:27.347Z,13.30
2022-11-12T21:14:20.819Z,13.63
2022-11-12T21:17:14.357Z,13.43
2022-11-12T21:20:08.227Z,14.40
2022-11-12T21:23:01.552Z,13.30
2022-11-12T21:25:54.914Z,15.17
2022-11-12T21:28:55.924Z,14.37
2022-11-12T21:31:49.159Z,13.90
2022-11-12T21:34:42.641Z,15.37
2022-11-12T21:37:36.282Z,14.13
2022-11-12T21:40:29.797Z,15.17
2022-11-12T21:43:23.389Z,15.50
2022-11-12T21:46:27.076Z,15.23
2022-11-12T21:49:20.407Z,14.33
2022-11-12T21:52:13.985Z,13.50
2022-11-12T21:55:08.158Z,13.50
2022-11-12T21:58:01.872Z,14.53
2022-11-12T22:00:55.495Z,14.80
2022-11-12T22:03:51.065Z,14.23
2022-11-12T22:06:44.597Z,15.10
2022-11-12T22:09:37.825Z,14.83
2022-11-12T22:12:31.025Z,15.20
2022-11-12T22:15:24.749Z,15.47
2022-11-12T22:18:18.398Z,15.43
2022-11-12T22:21:17.085Z,14.40
2022-11-12T22:24:11.793Z,14.00
2022-11-12T22:27:05.811Z,15.00
2022-11-12T22:29:59.420Z,15.27
2022-11-12T22:32:53.043Z,15.50
2022-11-12T22:35:46.659Z,17.10
2022-11-12T22:38:43.123Z,18.20
2022-11-12T22:41:36.439Z,20.57
2022-11-12T22:44:29.847Z,18.53
2022-11-12T22:47:22.990Z,18.53
2022-11-12T22:50:16.653Z,20.70
2022-11-12T22:53:09.961Z,19.73
2022-11-12T22:56:15.734Z,20.07
2022-11-12T22:59:11.138Z,20.03
2022-11-12T23:02:07.750Z,20.30
2022-11-12T23:05:01.042Z,19.90
2022-11-12T23:07:54.239Z,21.40
2022-11-12T23:10:47.809Z,20.07
2022-11-12T23:13:41.960Z,20.20
2022-11-12T23:16:35.833Z,20.03
2022-11-12T23:19:29.366Z,19.63
2022-11-12T23:22:23.507Z,19.60
2022-11-12T23:25:17.326Z,21.87
2022-11-12T23:28:10.713Z,20.60
2022-11-12T23:31:09.688Z,19.67
2022-11-12T23:34:02.990Z,20.23
2022-11-12T23:36:56.316Z,19.77
2022-11-12T23:39:49.898Z,19.37
2022-11-12T23:42:43.441Z,18.20
2022-11-12T23:45:40.191Z,18.80
2022-11-12T23:48:33.787Z,17.80
2022-11-12T23:51:27.899Z,19.23
2022-11-12T23:54:21.158Z,17.23
2022-11-12T23:57:14.906Z,16.00
